Time;durP1;ratioP1;P1;durP2;ratioP2;P2;SDS_P1;SDS_P2;PMS_P1;PMS_P2;Temp;Humidity;BMP_temperature;BMP_pressure;BME280_temperature;BME280_humidity;BME280_pressure;Samples;Min_cycle;Max_cycle;Signal;HPM_P1;HPM_P2
2023/05/09 03:00:48;;;;;;;;;;;21.90;55.90;;;;;;6056795;22;45943;-79
2023/05/09 03:03:13;;;;;;;;;;;21.80;55.80;;;;;;4910425;28;47106;-80
2023/05/09 03:05:39;;;;;;;;;;;21.90;55.90;;;;;;4927363;28;45509;-79
2023/05/09 03:08:04;;;;;;;;;;;21.90;55.90;;;;;;4946019;28;45779;-80
2023/05/09 03:10:30;;;;;;;;;;;21.90;55.90;;;;;;4931235;28;45409;-80
2023/05/09 03:12:55;;;;;;;;;;;21.90;55.90;;;;;;4940693;28;45485;-80
2023/05/09 03:15:21;;;;;;;;;;;21.90;55.90;;;;;;4914657;28;45590;-81
2023/05/09 03:17:46;;;;;;;;;;;22.10;56.00;;;;;;4917005;28;45384;-82
2023/05/09 03:20:12;;;;;;;;;;;22.00;55.90;;;;;;4909083;28;44911;-83
2023/05/09 03:22:40;;;;;;;;;;;21.90;56.00;;;;;;4938821;28;46963;-82
2023/05/09 03:25:05;;;;;;;;;;;21.90;55.80;;;;;;4900849;28;45223;-82
2023/05/09 03:27:31;;;;;;;;;;;21.90;55.90;;;;;;4932850;28;45090;-83
2023/05/09 03:29:56;;;;;;;;;;;22.00;55.90;;;;;;4918067;28;45553;-81
2023/05/09 03:32:22;;;;;;;;;;;22.00;55.90;;;;;;4930438;28;45471;-82
2023/05/09 03:34:47;;;;;;;;;;;21.90;55.90;;;;;;4923835;28;45323;-81
2023/05/09 03:37:13;;;;;;;;;;;21.90;55.90;;;;;;4915784;28;44901;-82
2023/05/09 03:39:38;;;;;;;;;;;22.00;55.90;;;;;;4934292;28;45686;-81
2023/05/09 03:42:04;;;;;;;;;;;21.90;55.90;;;;;;4913900;28;47414;-83
2023/05/09 03:44:29;;;;;;;;;;;21.90;56.00;;;;;;4913372;28;45563;-81
2023/05/09 03:46:55;;;;;;;;;;;21.80;56.00;;;;;;4896560;28;45044;-82
2023/05/09 03:49:20;;;;;;;;;;;21.90;56.00;;;;;;4905090;28;45400;-81
2023/05/09 03:51:46;;;;;;;;;;;21.90;56.00;;;;;;4905698;28;45577;-81
2023/05/09 03:54:11;;;;;;;;;;;21.90;56.00;;;;;;4933018;28;45492;-81
2023/05/09 03:56:37;;;;;;;;;;;21.90;56.00;;;;;;4898999;28;45347;-83
2023/05/09 03:59:02;;;;;;;;;;;21.90;56.00;;;;;;4910089;28;44806;-84
2023/05/09 04:01:28;;;;;;;;;;;21.90;56.10;;;;;;4889467;28;46895;-83
2023/05/09 04:03:56;;;;;;;;;;;21.90;56.10;;;;;;4920567;28;45246;-83
2023/05/09 04:06:21;;;;;;;;;;;21.90;56.10;;;;;;4918076;28;45382;-83
2023/05/09 04:08:47;;;;;;;;;;;21.90;56.10;;;;;;4924530;28;45253;-83
2023/05/09 04:11:12;;;;;;;;;;;21.90;56.10;;;;;;4892528;28;47001;-83
2023/05/09 04:13:38;;;;;;;;;;;21.90;56.10;;;;;;4938968;28;44718;-83
2023/05/09 04:16:04;;;;;;;;;;;21.90;56.10;;;;;;4896606;28;45116;-82
2023/05/09 04:18:30;;;;;;;;;;;21.80;56.10;;;;;;4912096;28;45331;-84
2023/05/09 04:20:55;;;;;;;;;;;21.90;56.10;;;;;;4914567;28;46634;-83
2023/05/09 04:23:21;;;;;;;;;;;21.90;56.20;;;;;;4924727;28;45475;-83
2023/05/09 04:25:46;;;;;;;;;;;21.80;56.10;;;;;;4919993;28;45276;-84
2023/05/09 04:28:12;;;;;;;;;;;22.10;56.20;;;;;;4910939;28;45400;-83
2023/05/09 04:30:37;;;;;;;;;;;22.00;56.10;;;;;;4921338;28;47427;-81
2023/05/09 04:33:03;;;;;;;;;;;21.80;56.10;;;;;;4946781;28;45258;-82
2023/05/09 04:35:28;;;;;;;;;;;22.10;56.30;;;;;;4907529;28;45300;-79
2023/05/09 04:37:54;;;;;;;;;;;21.90;56.20;;;;;;4929708;28;45508;-80
2023/05/09 04:40:19;;;;;;;;;;;21.90;56.10;;;;;;4918397;28;46782;-83
2023/05/09 04:42:45;;;;;;;;;;;21.80;56.00;;;;;;4916846;28;45530;-84
2023/05/09 04:45:11;;;;;;;;;;;21.80;56.10;;;;;;4921904;28;45411;-82
2023/05/09 04:47:36;;;;;;;;;;;21.80;56.10;;;;;;4897005;28;45567;-84
2023/05/09 04:50:02;;;;;;;;;;;21.90;56.10;;;;;;4920161;28;45513;-85
2023/05/09 04:52:27;;;;;;;;;;;21.90;56.30;;;;;;4921603;28;45703;-84
2023/05/09 04:54:53;;;;;;;;;;;21.90;56.20;;;;;;4925195;28;45336;-83
2023/05/09 04:57:18;;;;;;;;;;;21.80;56.10;;;;;;4897064;28;46246;-84
2023/05/09 04:59:44;;;;;;;;;;;21.90;56.10;;;;;;4929222;28;45152;-83
2023/05/09 05:02:10;;;;;;;;;;;21.90;56.00;;;;;;4906128;28;45139;-82
2023/05/09 05:04:35;;;;;;;;;;;21.80;56.00;;;;;;4906855;28;45129;-83
2023/05/09 05:07:01;;;;;;;;;;;21.90;56.00;;;;;;4875517;28;45355;-83
2023/05/09 05:09:26;;;;;;;;;;;21.80;55.90;;;;;;4888624;28;46795;-83
2023/05/09 05:11:51;;;;;;;;;;;21.90;56.00;;;;;;4905609;28;45541;-80
2023/05/09 05:14:17;;;;;;;;;;;21.80;56.00;;;;;;4893682;28;44919;-80
2023/05/09 05:16:42;;;;;;;;;;;21.80;56.00;;;;;;4898285;28;45365;-82
2023/05/09 05:19:08;;;;;;;;;;;21.90;56.10;;;;;;4878789;28;48715;-81
2023/05/09 05:21:33;;;;;;;;;;;21.90;56.00;;;;;;4887995;28;45470;-83
2023/05/09 05:23:59;;;;;;;;;;;21.90;56.10;;;;;;4899742;28;45623;-83
2023/05/09 05:26:24;;;;;;;;;;;21.90;56.00;;;;;;4919035;28;45468;-82
2023/05/09 05:28:54;;;;;;;;;;;21.90;56.60;;;;;;4872206;28;46830;-82
2023/05/09 05:31:20;;;;;;;;;;;22.00;56.10;;;;;;4880206;28;45679;-83
2023/05/09 05:33:45;;;;;;;;;;;21.80;56.10;;;;;;4902520;28;45408;-82
2023/05/09 05:36:10;;;;;;;;;;;22.00;56.00;;;;;;4894939;28;45157;-81
2023/05/09 05:38:36;;;;;;;;;;;21.90;56.00;;;;;;4904267;28;46549;-83
2023/05/09 05:41:01;;;;;;;;;;;21.80;55.80;;;;;;4871727;28;44791;-82
2023/05/09 05:43:27;;;;;;;;;;;21.80;55.80;;;;;;4887549;28;44727;-83
2023/05/09 05:45:52;;;;;;;;;;;21.90;55.80;;;;;;4883456;28;45375;-82
2023/05/09 05:48:18;;;;;;;;;;;21.90;55.70;;;;;;4911083;28;47162;-82
2023/05/09 05:50:43;;;;;;;;;;;21.90;55.60;;;;;;4890908;28;44978;-85
2023/05/09 05:53:09;;;;;;;;;;;22.10;55.70;;;;;;4919674;28;44846;-84
2023/05/09 05:55:34;;;;;;;;;;;22.00;55.60;;;;;;4898877;28;45325;-83
2023/05/09 05:58:00;;;;;;;;;;;22.00;55.50;;;;;;4889983;28;47074;-83
2023/05/09 06:00:25;;;;;;;;;;;22.00;55.50;;;;;;4881126;28;45200;-82
2023/05/09 06:02:51;;;;;;;;;;;22.00;55.10;;;;;;4900114;28;45148;-81
2023/05/09 06:05:16;;;;;;;;;;;22.20;55.10;;;;;;4901231;28;45254;-81
2023/05/09 06:07:43;;;;;;;;;;;22.00;55.10;;;;;;4921765;28;47648;-82
2023/05/09 06:10:08;;;;;;;;;;;22.00;53.90;;;;;;4893441;28;45199;-81
2023/05/09 06:12:34;;;;;;;;;;;22.10;54.10;;;;;;4910110;28;45193;-81
2023/05/09 06:14:59;;;;;;;;;;;22.10;53.40;;;;;;4931842;28;45862;-82
2023/05/09 06:17:25;;;;;;;;;;;22.30;53.20;;;;;;4898295;28;47348;-81
2023/05/09 06:19:51;;;;;;;;;;;22.10;52.90;;;;;;4912701;28;45677;-81
2023/05/09 06:22:16;;;;;;;;;;;22.20;52.80;;;;;;4928930;28;45190;-81
2023/05/09 06:24:42;;;;;;;;;;;22.20;52.70;;;;;;4958544;28;45148;-80
2023/05/09 06:27:07;;;;;;;;;;;22.30;52.50;;;;;;4923504;28;47106;-81
2023/05/09 06:29:33;;;;;;;;;;;22.10;52.10;;;;;;4919378;28;45461;-81
2023/05/09 06:31:58;;;;;;;;;;;22.10;51.80;;;;;;4901283;28;45665;-81
2023/05/09 06:34:24;;;;;;;;;;;22.30;51.90;;;;;;4912503;28;45152;-81
2023/05/09 06:36:49;;;;;;;;;;;22.20;51.60;;;;;;4936033;28;47384;-81
2023/05/09 06:39:15;;;;;;;;;;;22.20;51.40;;;;;;4931571;28;45545;-81
2023/05/09 06:41:40;;;;;;;;;;;22.20;51.50;;;;;;4923447;28;45413;-81
2023/05/09 06:44:06;;;;;;;;;;;22.30;51.50;;;;;;4924801;28;45295;-81
2023/05/09 06:46:31;;;;;;;;;;;22.30;51.30;;;;;;4927569;28;46262;-81
2023/05/09 06:48:57;;;;;;;;;;;22.40;51.30;;;;;;4937355;28;44692;-81
2023/05/09 06:51:22;;;;;;;;;;;22.20;51.30;;;;;;4906183;28;45482;-81
2023/05/09 06:53:48;;;;;;;;;;;22.40;51.30;;;;;;4912407;28;44937;-81
2023/05/09 06:56:13;;;;;;;;;;;22.40;51.10;;;;;;4906890;28;47118;-81
2023/05/09 06:58:38;;;;;;;;;;;22.30;51.10;;;;;;4930831;28;45387;-81
2023/05/09 07:01:04;;;;;;;;;;;22.40;51.00;;;;;;4898775;28;45386;-83
2023/05/09 07:03:30;;;;;;;;;;;22.40;51.10;;;;;;4915795;28;45221;-82
2023/05/09 07:05:57;;;;;;;;;;;22.40;51.00;;;;;;4886173;28;48229;-83
2023/05/09 07:08:23;;;;;;;;;;;22.40;51.00;;;;;;4915917;28;45237;-84
2023/05/09 07:10:49;;;;;;;;;;;22.50;51.20;;;;;;4916256;28;45025;-83
2023/05/09 07:13:14;;;;;;;;;;;22.50;51.20;;;;;;4894435;28;45190;-80
2023/05/09 07:15:41;;;;;;;;;;;22.40;51.10;;;;;;4917458;28;45348;-80
2023/05/09 07:18:06;;;;;;;;;;;22.50;51.10;;;;;;4880040;28;45089;-80
2023/05/09 07:20:32;;;;;;;;;;;22.60;51.10;;;;;;4911578;28;45045;-80
2023/05/09 07:22:57;;;;;;;;;;;22.50;50.90;;;;;;4943524;28;45164;-80
2023/05/09 07:25:23;;;;;;;;;;;22.50;50.70;;;;;;4930670;28;45568;-80
2023/05/09 07:27:48;;;;;;;;;;;22.50;50.80;;;;;;4904048;28;45498;-79
2023/05/09 07:30:14;;;;;;;;;;;22.50;50.80;;;;;;4887247;28;45451;-80
2023/05/09 07:32:39;;;;;;;;;;;22.60;51.30;;;;;;4902259;28;45141;-79
2023/05/09 07:35:05;;;;;;;;;;;22.60;51.00;;;;;;4900678;28;47199;-80
2023/05/09 07:37:31;;;;;;;;;;;22.60;51.20;;;;;;4889253;28;45006;-79
2023/05/09 07:39:57;;;;;;;;;;;22.70;50.90;;;;;;4890418;28;45244;-80
2023/05/09 07:42:22;;;;;;;;;;;22.70;50.40;;;;;;4886656;28;45303;-80
2023/05/09 07:44:51;;;;;;;;;;;22.70;50.30;;;;;;4908162;28;47144;-80
2023/05/09 07:47:16;;;;;;;;;;;22.60;50.20;;;;;;4882799;28;45270;-80
2023/05/09 07:49:44;;;;;;;;;;;22.80;50.40;;;;;;4903144;28;45586;-80
2023/05/09 07:52:09;;;;;;;;;;;22.70;49.30;;;;;;4888828;28;45299;-79
2023/05/09 07:54:35;;;;;;;;;;;22.70;49.00;;;;;;4899977;28;47135;-79
2023/05/09 07:57:00;;;;;;;;;;;22.70;49.70;;;;;;4925937;28;45220;-79
2023/05/09 07:59:26;;;;;;;;;;;22.80;49.80;;;;;;4896922;28;44918;-80
2023/05/09 08:01:51;;;;;;;;;;;22.70;49.40;;;;;;4902637;28;45551;-79
2023/05/09 08:04:17;;;;;;;;;;;22.70;49.10;;;;;;4927737;28;45514;-79
2023/05/09 08:06:42;;;;;;;;;;;22.80;49.30;;;;;;4920185;28;45110;-79
2023/05/09 08:09:08;;;;;;;;;;;22.80;49.30;;;;;;4957859;28;45188;-80
2023/05/09 08:11:33;;;;;;;;;;;22.90;49.30;;;;;;4913672;28;45314;-79
2023/05/09 08:13:59;;;;;;;;;;;22.90;49.20;;;;;;4914688;28;48326;-79
2023/05/09 08:16:25;;;;;;;;;;;23.00;49.00;;;;;;4924633;28;45237;-80
2023/05/09 08:18:50;;;;;;;;;;;22.80;49.20;;;;;;4923881;28;45668;-79
2023/05/09 08:21:16;;;;;;;;;;;22.90;49.00;;;;;;4901220;28;45405;-79
2023/05/09 08:23:41;;;;;;;;;;;22.90;49.00;;;;;;4939972;28;45544;-79
2023/05/09 08:26:06;;;;;;;;;;;23.00;49.00;;;;;;4947112;28;45319;-80
2023/05/09 08:28:32;;;;;;;;;;;23.00;48.90;;;;;;4948592;28;45479;-78
2023/05/09 08:30:58;;;;;;;;;;;22.90;48.90;;;;;;4912747;28;45679;-79
2023/05/09 08:33:23;;;;;;;;;;;23.00;48.90;;;;;;4909318;28;46135;-79
2023/05/09 08:35:49;;;;;;;;;;;22.90;48.60;;;;;;4933454;28;45237;-90
2023/05/09 08:38:15;;;;;;;;;;;22.90;48.70;;;;;;4915732;28;45163;-87
2023/05/09 08:40:40;;;;;;;;;;;22.90;48.20;;;;;;4923649;28;44711;-87
2023/05/09 08:43:06;;;;;;;;;;;23.00;48.30;;;;;;4913467;28;46843;-87
2023/05/09 08:45:32;;;;;;;;;;;22.90;48.10;;;;;;4895198;28;45242;-88
2023/05/09 08:47:58;;;;;;;;;;;23.10;48.20;;;;;;4904338;28;45327;-88
2023/05/09 08:50:23;;;;;;;;;;;22.90;48.10;;;;;;4901607;28;45209;-88
2023/05/09 08:52:49;;;;;;;;;;;23.10;47.70;;;;;;4911729;28;46580;-87
2023/05/09 08:55:14;;;;;;;;;;;23.00;47.70;;;;;;4928130;28;45470;-88
2023/05/09 08:57:40;;;;;;;;;;;23.30;47.50;;;;;;4914962;28;45495;-88
2023/05/09 09:00:10;;;;;;;;;;;23.20;47.20;;;;;;4921321;28;44965;-88
2023/05/09 09:02:35;;;;;;;;;;;23.10;47.30;;;;;;4903621;28;45423;-87
2023/05/09 09:05:01;;;;;;;;;;;23.10;47.00;;;;;;4891891;28;45120;-87
2023/05/09 09:07:27;;;;;;;;;;;23.10;47.10;;;;;;4908735;28;44929;-87
2023/05/09 09:09:52;;;;;;;;;;;23.40;46.90;;;;;;4909895;28;45356;-88
2023/05/09 09:12:18;;;;;;;;;;;23.40;47.00;;;;;;4899570;28;47942;-87
2023/05/09 09:14:45;;;;;;;;;;;23.30;46.90;;;;;;4893998;28;45485;-87
2023/05/09 09:17:11;;;;;;;;;;;23.20;46.90;;;;;;4901150;28;45056;-91
2023/05/09 09:19:36;;;;;;;;;;;23.20;46.70;;;;;;4911705;28;45560;-88
2023/05/09 09:22:03;;;;;;;;;;;23.20;46.70;;;;;;4902577;28;47466;-89
2023/05/09 09:24:29;;;;;;;;;;;23.20;46.70;;;;;;4919219;28;44991;-87
2023/05/09 09:26:55;;;;;;;;;;;23.50;46.80;;;;;;4884318;28;44972;-88
2023/05/09 09:29:27;;;;;;;;;;;23.50;46.40;;;;;;4915495;28;45466;-88
2023/05/09 09:31:53;;;;;;;;;;;23.40;46.40;;;;;;4906402;28;45565;-84
2023/05/09 09:34:20;;;;;;;;;;;23.30;46.40;;;;;;4917371;28;45059;-83
2023/05/09 09:36:47;;;;;;;;;;;23.50;46.20;;;;;;4897367;28;45216;-84
2023/05/09 09:39:12;;;;;;;;;;;23.50;46.30;;;;;;4900157;28;45439;-83
2023/05/09 09:41:38;;;;;;;;;;;23.50;46.30;;;;;;4911674;28;46860;-85
2023/05/09 09:44:10;;;;;;;;;;;23.50;46.40;;;;;;4903847;28;44986;-84
2023/05/09 09:46:46;;;;;;;;;;;23.40;46.00;;;;;;4882847;28;44922;-83
2023/05/09 09:49:11;;;;;;;;;;;23.50;46.20;;;;;;4907457;28;45747;-83
2023/05/09 09:51:37;;;;;;;;;;;23.40;46.10;;;;;;4908942;28;45174;-85
2023/05/09 09:54:03;;;;;;;;;;;23.60;45.50;;;;;;4923587;28;45170;-84
2023/05/09 09:56:39;;;;;;;;;;;23.50;45.70;;;;;;4905485;28;45213;-84
2023/05/09 09:59:08;;;;;;;;;;;23.70;45.70;;;;;;4902398;28;45048;-84
2023/05/09 10:01:34;;;;;;;;;;;23.50;45.60;;;;;;4895792;28;47095;-83
2023/05/09 10:04:01;;;;;;;;;;;23.50;45.50;;;;;;4928588;28;45643;-84
2023/05/09 10:06:26;;;;;;;;;;;23.70;45.60;;;;;;4913419;28;45318;-84
2023/05/09 10:08:51;;;;;;;;;;;23.70;45.70;;;;;;4896517;28;45215;-84
2023/05/09 10:11:17;;;;;;;;;;;23.60;45.40;;;;;;4914776;28;45850;-84
2023/05/09 10:13:43;;;;;;;;;;;23.60;45.30;;;;;;4956987;28;44934;-84
2023/05/09 10:16:09;;;;;;;;;;;23.70;45.10;;;;;;4906326;28;45237;-82
2023/05/09 10:18:34;;;;;;;;;;;23.70;45.00;;;;;;4920740;28;45403;-84
2023/05/09 10:21:02;;;;;;;;;;;23.60;44.70;;;;;;4937176;28;47199;-85
2023/05/09 10:23:31;;;;;;;;;;;23.70;45.00;;;;;;4945980;28;45293;-83
2023/05/09 10:25:57;;;;;;;;;;;23.70;44.80;;;;;;4933461;28;45225;-84
2023/05/09 10:28:23;;;;;;;;;;;23.70;44.60;;;;;;4942254;28;45527;-83
2023/05/09 10:30:53;;;;;;;;;;;23.70;44.90;;;;;;4924891;28;47282;-84
2023/05/09 10:33:20;;;;;;;;;;;23.70;44.70;;;;;;4918980;28;45613;-88
2023/05/09 10:35:46;;;;;;;;;;;23.70;44.20;;;;;;4911863;28;45268;-87
2023/05/09 10:38:11;;;;;;;;;;;23.70;44.30;;;;;;4945788;28;45452;-87
2023/05/09 10:40:37;;;;;;;;;;;23.90;44.40;;;;;;4923507;28;46889;-87
2023/05/09 10:43:04;;;;;;;;;;;23.80;44.30;;;;;;4924198;28;45266;-87
2023/05/09 10:45:29;;;;;;;;;;;23.70;44.10;;;;;;4937073;28;45205;-87
2023/05/09 10:47:55;;;;;;;;;;;23.90;44.30;;;;;;4933053;28;45177;-87
2023/05/09 10:50:21;;;;;;;;;;;23.70;44.20;;;;;;4928061;28;47289;-89
2023/05/09 10:53:15;;;;;;;;;;;23.90;44.20;;;;;;4920630;28;45413;-87
2023/05/09 10:55:49;;;;;;;;;;;23.70;43.70;;;;;;4903391;28;45046;-87
2023/05/09 10:58:19;;;;;;;;;;;23.70;44.10;;;;;;4927234;28;45426;-87
2023/05/09 11:00:45;;;;;;;;;;;23.70;42.20;;;;;;4950460;28;45772;-85
2023/05/09 11:03:10;;;;;;;;;;;23.80;41.00;;;;;;4955425;28;45335;-85
2023/05/09 11:05:39;;;;;;;;;;;23.80;39.90;;;;;;4932224;28;45219;-85
2023/05/09 11:08:16;;;;;;;;;;;23.80;40.00;;;;;;4928506;28;45435;-84
2023/05/09 11:10:42;;;;;;;;;;;23.90;39.40;;;;;;4920970;28;46778;-84
2023/05/09 11:13:07;;;;;;;;;;;23.90;39.00;;;;;;4917586;28;45202;-84
2023/05/09 11:15:33;;;;;;;;;;;24.00;39.20;;;;;;4947934;28;45196;-84
2023/05/09 11:18:05;;;;;;;;;;;23.90;38.90;;;;;;4901720;28;44922;-84
2023/05/09 11:20:32;;;;;;;;;;;23.90;38.90;;;;;;4922637;28;47406;-84
2023/05/09 11:22:57;;;;;;;;;;;23.90;39.40;;;;;;4954910;28;45144;-83
2023/05/09 11:25:27;;;;;;;;;;;24.00;38.70;;;;;;4913684;28;45599;-83
2023/05/09 11:27:56;;;;;;;;;;;24.00;38.40;;;;;;4927927;28;45125;-83
2023/05/09 11:30:21;;;;;;;;;;;24.00;38.20;;;;;;4896095;28;46674;-85
2023/05/09 11:32:54;;;;;;;;;;;24.00;38.30;;;;;;4928958;28;45488;-83
2023/05/09 11:35:20;;;;;;;;;;;24.00;37.50;;;;;;4947107;28;45287;-84
2023/05/09 11:37:45;;;;;;;;;;;24.10;37.10;;;;;;4910633;28;45361;-84
2023/05/09 11:40:11;;;;;;;;;;;24.20;37.10;;;;;;4939555;28;46905;-84
2023/05/09 11:42:37;;;;;;;;;;;24.00;36.90;;;;;;4926209;28;45280;-84
2023/05/09 11:45:03;;;;;;;;;;;24.10;37.20;;;;;;4958115;28;45279;-85
2023/05/09 11:47:29;;;;;;;;;;;24.00;36.90;;;;;;4919424;28;45368;-83
2023/05/09 11:49:55;;;;;;;;;;;24.10;37.00;;;;;;4933812;28;46969;-83
2023/05/09 11:52:21;;;;;;;;;;;24.10;36.90;;;;;;4922927;28;45336;-82
2023/05/09 11:54:46;;;;;;;;;;;24.10;37.10;;;;;;4954697;28;45168;-84
2023/05/09 11:57:16;;;;;;;;;;;24.10;37.20;;;;;;4908469;28;45133;-83
2023/05/09 11:59:41;;;;;;;;;;;24.10;37.10;;;;;;4951305;28;45516;-83
2023/05/09 12:02:07;;;;;;;;;;;24.10;37.20;;;;;;4908704;28;45060;-83
2023/05/09 12:04:33;;;;;;;;;;;24.10;37.70;;;;;;4916081;28;44727;-84
2023/05/09 12:06:58;;;;;;;;;;;24.30;37.70;;;;;;4934436;28;45418;-82
2023/05/09 12:09:33;;;;;;;;;;;24.20;37.10;;;;;;4925183;28;46796;-83
2023/05/09 12:12:00;;;;;;;;;;;24.20;37.00;;;;;;4926931;28;45243;-83
2023/05/09 12:14:26;;;;;;;;;;;24.20;36.70;;;;;;4923593;28;45259;-83
2023/05/09 12:16:51;;;;;;;;;;;24.20;36.40;;;;;;4918512;28;45477;-83
2023/05/09 12:19:17;;;;;;;3.42;1.45;;;24.20;36.50;;;;;;4933151;28;45466;-82
2023/05/09 12:21:43;;;;;;;3.25;1.38;;;24.30;38.90;;;;;;4926208;28;44577;-82
2023/05/09 12:24:08;;;;;;;3.35;1.85;;;24.40;38.70;;;;;;4888142;28;45195;-81
2023/05/09 12:26:34;;;;;;;3.63;1.20;;;24.40;38.60;;;;;;4926414;28;45195;-83
2023/05/09 12:29:03;;;;;;;3.10;1.38;;;24.30;38.00;;;;;;4933224;28;47324;-82
2023/05/09 12:31:29;;;;;;;1.25;1.10;;;24.20;37.50;;;;;;4912178;28;45710;-83
2023/05/09 12:33:54;;;;;;;3.45;1.42;;;24.40;37.80;;;;;;4904446;28;45352;-82
2023/05/09 12:36:20;;;;;;;2.22;1.55;;;24.30;37.80;;;;;;4890319;28;45500;-82
2023/05/09 12:38:55;;;;;;;2.45;1.42;;;24.30;37.40;;;;;;4902380;28;45466;-82
2023/05/09 12:41:21;;;;;;;4.20;1.30;;;24.30;36.10;;;;;;4918724;28;45292;-82
2023/05/09 12:43:47;;;;;;;2.15;1.30;;;24.40;37.40;;;;;;4901651;28;45194;-82
2023/05/09 12:46:16;;;;;;;2.92;1.30;;;24.40;37.40;;;;;;4918415;28;45611;-84
2023/05/09 12:48:42;;;;;;;2.22;1.40;;;24.30;36.90;;;;;;4920862;28;46091;-82
2023/05/09 12:51:08;;;;;;;2.15;0.93;;;24.50;36.80;;;;;;4888299;28;45162;-82
2023/05/09 12:53:37;;;;;;;1.40;1.00;;;24.40;36.50;;;;;;4903741;28;45258;-81
2023/05/09 12:56:04;;;;;;;1.20;1.05;;;24.40;36.10;;;;;;4892930;28;45264;-82
2023/05/09 12:58:30;;;;;;;1.73;1.15;;;24.30;35.70;;;;;;4944506;28;45652;-82
2023/05/09 13:00:56;;;;;;;2.33;1.15;;;24.50;35.40;;;;;;4909069;28;45776;-82
2023/05/09 13:03:26;;;;;;;2.85;1.15;;;24.40;35.40;;;;;;4908930;28;44742;-82
2023/05/09 13:05:59;;;;;;;2.63;1.17;;;24.40;34.40;;;;;;4923386;28;45461;-83
2023/05/09 13:08:25;;;;;;;;;;;24.50;33.90;;;;;;4946815;28;45411;-82
2023/05/09 13:10:50;;;;;;;2.63;0.98;;;24.50;32.20;;;;;;4910040;28;44672;-83
2023/05/09 13:13:16;;;;;;;1.73;1.08;;;24.50;34.20;;;;;;4936729;28;45230;-83
2023/05/09 13:15:42;;;;;;;4.07;0.93;;;24.40;34.20;;;;;;4918249;28;45189;-83
2023/05/09 13:18:08;;;;;;;1.77;0.85;;;24.50;34.00;;;;;;4919853;28;45206;-83
2023/05/09 13:20:33;;;;;;;1.67;1.23;;;24.50;33.80;;;;;;4906291;28;45312;-81
2023/05/09 13:22:59;;;;;;;2.22;1.00;;;24.40;34.00;;;;;;4923165;28;45192;-81
2023/05/09 13:25:25;;;;;;;3.28;1.25;;;24.60;34.10;;;;;;4914899;28;45453;-81
2023/05/09 13:27:51;;;;;;;1.42;1.00;;;24.50;34.10;;;;;;4943434;28;46930;-79
2023/05/09 13:30:17;;;;;;;2.10;1.02;;;24.50;34.10;;;;;;4900297;28;45302;-80
2023/05/09 13:32:42;;;;;;;1.05;0.90;;;24.50;34.00;;;;;;4902746;28;45190;-79
2023/05/09 13:35:09;;;;;;;4.60;1.17;;;24.50;34.10;;;;;;4918130;28;45145;-79
2023/05/09 13:37:34;;;;;;;2.67;1.20;;;24.40;34.20;;;;;;4895322;28;46989;-80
2023/05/09 13:40:00;;;;;;;1.33;0.90;;;24.40;34.30;;;;;;4926244;28;45276;-80
2023/05/09 13:42:26;;;;;;;3.45;1.00;;;24.50;34.30;;;;;;4904340;28;45416;-79
2023/05/09 13:44:52;;;;;;;4.13;0.90;;;24.60;34.40;;;;;;4906327;28;45206;-80
2023/05/09 13:47:17;;;;;;;1.50;1.25;;;24.50;34.10;;;;;;4913587;28;45338;-80
2023/05/09 13:49:43;;;;;;;2.67;0.95;;;24.40;33.80;;;;;;4915450;28;45106;-80
2023/05/09 13:52:09;;;;;;;1.55;1.20;;;24.50;33.80;;;;;;4901571;28;45172;-79
2023/05/09 13:54:34;;;;;;;3.17;1.20;;;24.50;34.00;;;;;;4911715;28;45413;-79
2023/05/09 13:57:02;;;;;;;2.38;1.30;;;24.50;34.10;;;;;;4916899;28;47145;-79
2023/05/09 13:59:28;;;;;;;1.40;1.10;;;24.60;34.20;;;;;;4932578;28;45557;-80
2023/05/09 14:01:56;;;;;;;1.42;0.82;;;24.50;34.10;;;;;;4907259;28;45386;-80
2023/05/09 14:04:21;;;;;;;1.30;1.10;;;24.60;34.10;;;;;;4927241;28;45141;-80
2023/05/09 14:06:48;;;;;;;1.67;0.90;;;24.40;34.00;;;;;;4894643;28;45505;-79
2023/05/09 14:09:14;;;;;;;1.10;1.00;;;24.60;34.30;;;;;;4879463;28;45785;-80
2023/05/09 14:11:41;;;;;;;2.65;1.35;;;24.50;34.30;;;;;;4884132;28;45033;-80
2023/05/09 14:14:07;;;;;;;1.10;0.95;;;24.50;34.40;;;;;;4916113;28;45171;-79
2023/05/09 14:16:32;;;;;;;2.40;1.00;;;24.50;34.30;;;;;;4880415;28;47115;-80
2023/05/09 14:18:58;;;;;;;1.75;1.00;;;24.50;34.30;;;;;;4890948;28;45230;-79
2023/05/09 14:21:23;;;;;;;2.92;1.13;;;24.40;34.40;;;;;;4918643;28;45254;-82
2023/05/09 14:23:50;;;;;;;1.70;0.98;;;24.50;34.40;;;;;;4890206;28;45219;-80
2023/05/09 14:26:16;;;;;;;0.95;0.90;;;24.60;34.60;;;;;;4888805;28;48157;-79
2023/05/09 14:28:41;;;;;;;1.13;1.02;;;24.50;34.70;;;;;;4899501;28;44668;-81
2023/05/09 14:31:07;;;;;;;3.70;1.10;;;24.50;35.30;;;;;;4899755;28;45302;-83
2023/05/09 14:33:34;;;;;;;1.17;0.90;;;24.60;34.50;;;;;;4902640;28;44966;-83
2023/05/09 14:36:01;;;;;;;2.97;1.20;;;24.60;34.50;;;;;;4878584;28;47466;-80
2023/05/09 14:38:28;;;;;;;1.63;1.00;;;24.60;34.50;;;;;;4897508;28;45513;-80
2023/05/09 14:40:55;;;;;;;2.17;1.35;;;24.60;34.70;;;;;;4903404;28;45212;-80
2023/05/09 14:43:21;;;;;;;1.67;1.35;;;24.50;34.80;;;;;;4880130;28;45272;-80
2023/05/09 14:45:46;;;;;;;1.75;1.17;;;24.60;34.90;;;;;;4901733;28;46636;-80
2023/05/09 14:48:12;;;;;;;2.58;1.02;;;24.50;34.90;;;;;;4901283;28;45244;-80
2023/05/09 14:50:38;;;;;;;1.85;1.35;;;24.60;35.00;;;;;;4884096;28;45795;-80
2023/05/09 14:53:03;;;;;;;2.13;1.40;;;24.40;35.00;;;;;;4902034;28;45148;-80
2023/05/09 14:55:30;;;;;;;3.60;1.25;;;24.50;35.10;;;;;;4905747;28;47132;-80
2023/05/09 14:57:56;;;;;;;4.45;1.40;;;24.50;35.00;;;;;;4906092;28;45140;-80
2023/05/09 15:00:22;;;;;;;4.50;1.40;;;24.50;35.10;;;;;;4900950;28;45297;-79
2023/05/09 15:02:48;;;;;;;4.97;1.42;;;24.50;35.80;;;;;;4885621;28;45163;-80
2023/05/09 15:05:13;;;;;;;9.05;1.30;;;24.50;35.10;;;;;;4909103;28;46948;-80
2023/05/09 15:07:39;;;;;;;3.63;1.25;;;24.50;35.10;;;;;;4917122;28;45397;-80
2023/05/09 15:10:05;;;;;;;5.72;1.30;;;24.40;35.00;;;;;;4923957;28;45235;-80
2023/05/09 15:12:31;;;;;;;4.25;1.30;;;24.40;34.80;;;;;;4938893;28;45639;-80
2023/05/09 15:14:57;;;;;;;3.00;1.00;;;24.50;34.80;;;;;;4916267;28;46836;-79
2023/05/09 15:17:23;;;;;;;3.80;1.40;;;24.50;34.60;;;;;;4884008;28;45204;-80
2023/05/09 15:19:48;;;;;;;6.65;1.40;;;24.40;35.00;;;;;;4934668;28;45419;-80
2023/05/09 15:22:14;;;;;;;1.73;1.15;;;24.50;35.10;;;;;;4916700;28;44822;-80
2023/05/09 15:24:43;;;;;;;2.15;1.45;;;24.50;35.10;;;;;;4929915;28;45307;-79
2023/05/09 15:27:09;;;;;;;1.95;1.10;;;24.30;35.10;;;;;;4912720;28;45218;-79
2023/05/09 15:29:34;;;;;;;3.75;1.23;;;24.30;35.10;;;;;;4932225;28;44817;-79
2023/05/09 15:32:00;;;;;;;6.18;1.20;;;24.40;35.00;;;;;;4915224;28;45337;-79
2023/05/09 15:34:26;;;;;;;2.70;1.05;;;24.40;35.10;;;;;;4924401;28;47327;-79
2023/05/09 15:36:51;;;;;;;1.77;1.27;;;24.40;34.70;;;;;;4907125;28;45356;-79
2023/05/09 15:39:17;;;;;;;4.07;0.90;;;24.30;34.40;;;;;;4913902;28;45249;-79
2023/05/09 15:41:42;;;;;;;2.05;0.90;;;24.40;34.20;;;;;;4904179;28;45142;-80
2023/05/09 15:44:08;;;;;;;2.97;1.42;;;24.20;33.80;;;;;;4936738;28;47426;-80
2023/05/09 15:46:33;;;;;;;3.20;1.25;;;24.30;34.00;;;;;;4903854;28;45280;-84
2023/05/09 15:48:59;;;;;;;1.17;1.05;;;24.40;34.10;;;;;;4921375;28;45231;-81
2023/05/09 15:51:25;;;;;;;1.20;1.10;;;24.40;34.20;;;;;;4910721;28;45189;-80
2023/05/09 15:53:50;;;;;;;1.73;0.98;;;24.20;34.20;;;;;;4914904;28;45609;-80
2023/05/09 15:56:16;;;;;;;4.00;1.40;;;24.30;34.30;;;;;;4904781;28;45146;-79
2023/05/09 15:58:42;;;;;;;6.57;1.38;;;24.30;34.50;;;;;;4928920;28;45244;-79
2023/05/09 16:01:10;;;;;;;2.35;1.00;;;24.20;34.70;;;;;;4905458;28;45176;-80
2023/05/09 16:03:36;;;;;;;4.65;1.30;;;24.10;34.90;;;;;;4927215;28;45189;-80
2023/05/09 16:06:02;;;;;;;7.32;1.30;;;24.20;35.00;;;;;;4905932;28;45268;-83
2023/05/09 16:08:27;;;;;;;6.78;1.58;;;24.10;35.10;;;;;;4931884;28;45142;-82
2023/05/09 16:10:53;;;;;;;1.85;1.20;;;24.30;35.30;;;;;;4899345;28;45215;-82
2023/05/09 16:13:18;;;;;;;2.88;1.67;;;24.40;35.40;;;;;;4911845;28;47314;-82
2023/05/09 16:15:46;;;;;;;5.18;1.60;;;24.10;35.20;;;;;;4920340;28;45541;-82
2023/05/09 16:18:12;;;;;;;2.97;1.33;;;24.10;35.40;;;;;;4886332;28;45241;-82
2023/05/09 16:20:37;;;;;;;3.53;1.55;;;24.10;35.30;;;;;;4911986;28;45269;-82
2023/05/09 16:23:03;;;;;;;2.00;1.35;;;24.00;35.30;;;;;;4913627;28;46400;-80
2023/05/09 16:25:28;;;;;;;1.80;1.30;;;24.00;35.40;;;;;;4898104;28;45288;-82
2023/05/09 16:27:54;;;;;;;4.30;1.45;;;24.10;35.30;;;;;;4886241;28;45329;-83
2023/05/09 16:30:19;;;;;;;2.15;1.23;;;24.00;35.40;;;;;;4892923;28;45369;-83
2023/05/09 16:32:45;;;;;;;1.95;1.20;;;24.00;35.50;;;;;;4915449;28;47338;-82
2023/05/09 16:35:11;;;;;;;5.70;1.33;;;24.10;35.70;;;;;;4921927;28;45518;-82
2023/05/09 16:37:36;;;;;;;2.58;1.50;;;23.90;35.70;;;;;;4896418;28;45171;-82
2023/05/09 16:40:03;;;;;;;6.75;1.70;;;24.00;35.90;;;;;;4891568;28;45511;-82